Time;durP1;ratioP1;P1;durP2;ratioP2;P2;SDS_P1;SDS_P2;PMS_P1;PMS_P2;Temp;Humidity;BMP_temperature;BMP_pressure;BME280_temperature;BME280_humidity;BME280_pressure;Samples;Min_cycle;Max_cycle;Signal;HPM_P1;HPM_P2
2022/06/28 00:01:20;;;;;;;9.23;5.85;;;;;;;15.19;100.00;156337.84;4978221;28;20034;-85
2022/06/28 00:03:46;;;;;;;9.65;5.85;;;;;;;15.07;100.00;156308.25;4984020;28;20034;-85
2022/06/28 00:06:12;;;;;;;7.88;6.32;;;;;;;15.15;100.00;156328.81;4983625;28;20089;-84
2022/06/28 00:08:38;;;;;;;13.80;6.53;;;;;;;15.16;100.00;156330.09;4983632;28;20144;-84
2022/06/28 00:11:04;;;;;;;7.22;6.53;;;;;;;15.18;100.00;156335.25;4971264;28;20080;-88
2022/06/28 00:13:31;;;;;;;9.77;6.60;;;;;;;15.12;100.00;156319.81;4963755;28;20474;-85
2022/06/28 00:16:05;;;;;;;11.13;6.93;;;;;;;15.16;100.00;156330.09;4999052;28;20034;-83
2022/06/28 00:18:36;;;;;;;12.57;9.57;;;;;;;15.19;100.00;156339.09;4974300;28;20041;-79
2022/06/28 00:21:04;;;;;;;10.07;9.00;;;;;;;15.24;100.00;156349.41;4985220;28;20084;-83
2022/06/28 00:23:30;;;;;;;11.40;8.80;;;;;;;15.09;100.00;156312.13;4994728;28;20034;-81
2022/06/28 00:25:56;;;;;;;13.98;9.30;;;;;;;14.99;100.00;156288.97;4983992;28;20048;-79
2022/06/28 00:28:21;;;;;;;13.60;9.82;;;;;;;14.92;100.00;156270.94;4966059;28;20037;-83
2022/06/28 00:30:47;;;;;;;15.88;10.80;;;;;;;15.04;100.00;156300.53;4979373;28;20042;-83
2022/06/28 00:33:13;;;;;;;12.15;10.02;;;;;;;14.97;100.00;156282.50;4984629;28;20093;-84
2022/06/28 00:35:39;;;;;;;18.80;11.23;;;;;;;14.92;100.00;156269.66;4980956;28;20062;-82
2022/06/28 00:38:05;;;;;;;11.45;10.30;;;;;;;14.92;100.00;156270.94;4983320;28;20518;-82
2022/06/28 00:40:32;;;;;;;14.43;9.57;;;;;;;14.91;100.00;156267.06;4966970;28;20038;-82
2022/06/28 00:42:58;;;;;;;14.27;10.10;;;;;;;14.88;100.00;156259.34;4975875;28;20041;-83
2022/06/28 00:45:24;;;;;;;13.10;10.65;;;;;;;14.89;100.00;156261.94;5001844;28;20038;-82
2022/06/28 00:47:50;;;;;;;16.10;11.85;;;;;;;14.88;100.00;156259.34;4998162;28;20050;-84
2022/06/28 00:50:17;;;;;;;13.80;10.77;;;;;;;14.86;100.00;156254.19;4967516;28;20120;-83
2022/06/28 00:53:19;;;;;;;14.90;11.63;;;;;;;14.90;100.00;156264.47;4984773;28;20046;-82
2022/06/28 00:55:45;;;;;;;12.65;11.40;;;;;;;14.88;100.00;156260.66;4961710;28;20039;-83
2022/06/28 00:58:12;;;;;;;20.13;12.00;;;;;;;14.84;100.00;156249.06;4971508;28;20053;-83
2022/06/28 01:00:41;;;;;;;13.80;11.57;;;;;;;14.83;100.00;156246.50;4970937;28;20076;-81
2022/06/28 01:03:15;;;;;;;14.97;11.73;;;;;;;14.85;100.00;156252.94;4970382;28;20034;-84
2022/06/28 01:05:45;;;;;;;13.30;11.77;;;;;;;14.78;100.00;156236.19;4968927;28;20520;-84
2022/06/28 01:08:12;;;;;;;14.23;11.27;;;;;;;14.73;100.00;156223.34;4980765;28;20042;-84
2022/06/28 01:10:39;;;;;;;14.10;11.23;;;;;;;14.74;100.00;156225.91;4982277;28;20036;-83
2022/06/28 01:13:06;;;;;;;14.95;11.63;;;;;;;14.65;100.00;156201.47;4962693;28;20076;-83
2022/06/28 01:15:32;;;;;;;15.63;11.75;;;;;;;14.58;100.00;156186.06;4981037;28;20061;-85
2022/06/28 01:18:03;;;;;;;13.38;11.98;;;;;;;14.50;100.00;156164.13;4995598;28;20044;-83
2022/06/28 01:20:44;;;;;;;14.95;12.15;;;;;;;14.45;100.00;156151.25;4966566;28;20038;-87
2022/06/28 01:23:17;;;;;;;16.23;10.93;;;;;;;14.39;100.00;156137.09;4979520;28;20034;-84
2022/06/28 01:25:45;;;;;;;15.52;11.20;;;;;;;14.24;100.00;156099.84;4980118;28;20037;-84
2022/06/28 01:28:15;;;;;;;22.70;12.27;;;;;;;14.13;100.00;156072.84;4982190;28;20053;-84
2022/06/28 01:30:41;;;;;;;17.17;11.77;;;;;;;14.11;100.00;156066.38;4998938;28;20456;-83
2022/06/28 01:33:17;;;;;;;15.80;12.52;;;;;;;14.02;100.00;156045.81;4981342;28;20035;-83
2022/06/28 01:35:42;;;;;;;20.50;13.13;;;;;;;14.02;100.00;156044.56;4979990;28;20031;-85
2022/06/28 01:38:10;;;;;;;18.83;14.43;;;;;;;13.88;100.00;156009.84;4981365;28;20034;-82
2022/06/28 01:40:36;;;;;;;18.73;14.30;;;;;;;13.82;100.00;155994.41;4980081;28;20034;-83
2022/06/28 01:43:03;;;;;;;23.23;15.13;;;;;;;13.76;100.00;155978.97;4996137;28;20045;-85
2022/06/28 01:45:32;;;;;;;21.70;14.27;;;;;;;13.72;100.00;155968.72;4993687;28;20042;-83
2022/06/28 01:47:57;;;;;;;25.15;14.02;;;;;;;13.69;100.00;155960.97;4982224;28;20061;-84
2022/06/28 01:50:23;;;;;;;23.45;14.70;;;;;;;13.62;100.00;155945.56;4983162;28;20218;-83
2022/06/28 01:52:49;;;;;;;20.38;14.07;;;;;;;13.63;100.00;155948.09;4977509;28;20037;-84
2022/06/28 01:55:32;;;;;;;20.30;14.35;;;;;;;13.71;100.00;155967.44;4994574;28;20544;-84
2022/06/28 01:58:01;;;;;;;17.33;14.13;;;;;;;13.86;100.00;156003.41;4977990;28;20394;-85
2022/06/28 02:00:29;;;;;;;20.73;15.15;;;;;;;13.91;100.00;156016.25;4980947;28;20034;-85
2022/06/28 02:02:58;;;;;;;18.63;13.55;;;;;;;13.95;100.00;156027.81;4972672;28;20042;-87
2022/06/28 02:05:43;;;;;;;22.58;14.07;;;;;;;14.00;100.00;156039.41;4982680;28;20041;-83
2022/06/28 02:08:10;;;;;;;17.67;13.38;;;;;;;14.00;100.00;156039.41;4978616;28;20038;-85
2022/06/28 02:10:46;;;;;;;28.27;15.85;;;;;;;14.13;100.00;156072.84;4979983;28;20442;-85
2022/06/28 02:13:12;;;;;;;24.45;15.93;;;;;;;14.25;100.00;156101.13;4996018;28;20099;-85
2022/06/28 02:15:37;;;;;;;21.05;14.50;;;;;;;14.19;100.00;156086.97;5000206;28;20037;-83
2022/06/28 02:18:03;;;;;;;16.35;13.98;;;;;;;14.13;100.00;156071.56;4968780;28;20030;-83
2022/06/28 02:20:29;;;;;;;20.17;15.00;;;;;;;14.07;100.00;156056.09;4984469;28;20030;-84
2022/06/28 02:22:55;;;;;;;15.88;13.15;;;;;;;14.01;100.00;156043.28;4981586;28;20041;-85
2022/06/28 02:25:21;;;;;;;20.48;14.90;;;;;;;14.04;100.00;156049.69;4965301;28;20030;-85
2022/06/28 02:27:49;;;;;;;20.25;14.07;;;;;;;14.00;100.00;156039.41;4997577;28;20490;-85
2022/06/28 02:30:21;;;;;;;17.92;13.93;;;;;;;13.98;100.00;156034.28;4982944;28;20053;-86
2022/06/28 02:32:47;;;;;;;22.23;14.52;;;;;;;14.05;100.00;156050.97;4993714;28;20042;-89
2022/06/28 02:40:41;;;;;;;21.48;13.40;;;;;;;13.96;100.00;156030.41;4980982;28;20120;-84
2022/06/28 02:43:07;;;;;;;18.35;13.45;;;;;;;13.91;100.00;156016.25;4960611;28;20066;-86
2022/06/28 02:45:37;;;;;;;18.42;12.32;;;;;;;13.79;100.00;155987.97;4997445;28;20030;-86
2022/06/28 02:48:03;;;;;;;23.23;13.32;;;;;;;13.72;100.00;155968.72;4986297;28;20030;-85
2022/06/28 02:50:30;;;;;;;18.50;13.10;;;;;;;13.70;100.00;155963.56;4969115;28;20107;-85
2022/06/28 02:52:56;;;;;;;16.50;13.45;;;;;;;13.68;100.00;155958.44;4977167;28;20065;-83
2022/06/28 02:55:22;;;;;;;22.42;12.55;;;;;;;13.65;100.00;155950.69;4986665;28;20060;-85
2022/06/28 02:57:48;;;;;;;18.55;12.25;;;;;;;13.44;100.00;155900.56;4992459;28;20069;-84
2022/06/28 03:00:16;;;;;;;15.32;11.40;;;;;;;13.46;100.00;155904.44;4966966;28;20025;-85
2022/06/28 03:02:43;;;;;;;16.52;11.52;;;;;;;13.39;100.00;155886.41;4968857;28;20033;-83
2022/06/28 03:05:14;;;;;;;16.13;12.13;;;;;;;13.37;100.00;155881.28;4970679;28;20742;-83
2022/06/28 03:07:43;;;;;;;14.55;11.77;;;;;;;13.35;100.00;155877.41;4973635;28;20052;-85
2022/06/28 03:10:10;;;;;;;22.17;11.70;;;;;;;13.34;100.00;155874.88;4967535;28;20064;-83
2022/06/28 03:12:35;;;;;;;15.02;11.40;;;;;;;13.24;100.00;155850.41;4995495;28;20068;-84
2022/06/28 03:15:01;;;;;;;15.60;11.30;;;;;;;13.23;100.00;155847.81;4968241;28;20037;-85
2022/06/28 03:17:28;;;;;;;17.23;12.32;;;;;;;13.22;100.00;155845.28;4980432;28;20045;-85
2022/06/28 03:19:54;;;;;;;15.80;12.00;;;;;;;13.22;100.00;155843.97;4991410;28;20029;-84
2022/06/28 03:22:20;;;;;;;14.15;11.65;;;;;;;13.20;100.00;155838.81;4981637;28;20052;-85
2022/06/28 03:24:46;;;;;;;15.10;12.30;;;;;;;13.31;100.00;155865.88;4978409;28;20092;-84
2022/06/28 03:27:13;;;;;;;18.73;12.45;;;;;;;13.38;100.00;155883.88;5001812;28;20034;-84
2022/06/28 03:29:39;;;;;;;16.88;13.90;;;;;;;13.41;100.00;155892.88;4970766;28;20121;-84
2022/06/28 03:32:08;;;;;;;15.23;12.68;;;;;;;13.43;100.00;155898.00;4978610;28;20068;-85
2022/06/28 03:34:33;;;;;;;15.60;12.23;;;;;;;13.54;100.00;155923.69;4979823;28;20038;-83
2022/06/28 03:36:59;;;;;;;15.23;11.77;;;;;;;13.59;100.00;155936.56;4998565;28;20077;-83
2022/06/28 03:39:33;;;;;;;15.82;12.32;;;;;;;13.66;100.00;155953.28;4981599;28;20077;-85
2022/06/28 03:41:58;;;;;;;18.45;11.75;;;;;;;13.67;100.00;155955.84;4998868;28;20034;-83
2022/06/28 03:44:25;;;;;;;16.45;12.43;;;;;;;13.75;100.00;155977.72;4982775;28;20421;-83
2022/06/28 03:46:51;;;;;;;15.85;12.70;;;;;;;13.75;100.00;155976.38;4970086;28;20551;-83
2022/06/28 03:49:32;;;;;;;15.52;11.93;;;;;;;13.71;100.00;155967.44;4973458;28;20037;-84
2022/06/28 03:52:09;;;;;;;17.02;12.23;;;;;;;13.83;100.00;155997.00;4968439;28;20045;-85
2022/06/28 03:54:53;;;;;;;14.75;12.10;;;;;;;13.87;100.00;156007.25;4997319;28;20045;-85
2022/06/28 03:57:33;;;;;;;15.82;12.40;;;;;;;13.90;100.00;156013.69;4966038;28;20041;-82
2022/06/28 04:00:01;;;;;;;18.80;12.82;;;;;;;13.96;100.00;156029.13;4985998;28;20087;-85
2022/06/28 04:02:28;;;;;;;20.25;14.45;;;;;;;13.99;100.00;156038.13;4987435;28;20044;-83
2022/06/28 04:04:53;;;;;;;20.00;14.63;;;;;;;14.07;100.00;156057.41;5015537;28;20062;-84
2022/06/28 04:07:19;;;;;;;22.75;15.20;;;;;;;14.12;100.00;156070.25;4980746;28;20056;-82
2022/06/28 04:09:46;;;;;;;21.48;15.07;;;;;;;14.22;100.00;156094.66;4983276;28;20045;-84
2022/06/28 04:12:12;;;;;;;25.45;15.40;;;;;;;14.27;100.00;156106.28;4966210;28;20034;-85
2022/06/28 04:14:38;;;;;;;24.92;17.77;;;;;;;14.36;100.00;156129.41;4981134;28;20066;-81
2022/06/28 04:17:03;;;;;;;19.83;14.35;;;;;;;14.43;100.00;156146.13;4980749;28;20116;-85
2022/06/28 04:19:52;;;;;;;21.15;16.30;;;;;;;14.57;100.00;156183.47;4993195;28;20047;-84
2022/06/28 04:22:17;;;;;;;20.50;16.50;;;;;;;14.52;100.00;156170.59;4999585;28;20088;-86
2022/06/28 04:24:43;;;;;;;26.85;17.98;;;;;;;14.50;100.00;156164.13;4982060;28;20518;-84
2022/06/28 04:27:15;;;;;;;24.98;17.75;;;;;;;14.57;100.00;156183.47;4986601;28;20103;-84
2022/06/28 04:29:41;;;;;;;24.25;16.85;;;;;;;14.58;100.00;156186.06;5003523;28;20490;-82
2022/06/28 04:32:17;;;;;;;21.40;16.33;;;;;;;14.60;100.00;156189.91;5001581;28;20125;-85
2022/06/28 04:34:43;;;;;;;23.75;17.15;;;;;;;14.67;100.00;156206.63;4980369;28;20069;-85
2022/06/28 04:37:09;;;;;;;23.17;16.88;;;;;;;14.86;100.00;156255.53;4983911;28;20045;-85
2022/06/28 04:39:35;;;;;;;21.20;13.10;;;;;;;15.10;100.00;156314.69;4984389;28;20048;-86
2022/06/28 04:42:15;;;;;;;19.60;13.15;;;;;;;15.02;100.00;156294.09;4986684;28;20068;-85
2022/06/28 04:44:42;;;;;;;17.33;12.38;;;;;;;14.94;100.00;156274.81;5002229;28;20045;-86
2022/06/28 04:47:10;;;;;;;19.17;12.32;;;;;;;14.97;100.00;156282.50;5001031;28;20034;-88
2022/06/28 04:49:38;;;;;;;17.45;13.20;;;;;;;14.94;100.00;156274.81;5005438;28;20045;-82
2022/06/28 04:52:05;;;;;;;18.80;12.65;;;;;;;15.05;100.00;156301.78;4989683;28;20378;-84
2022/06/28 04:54:35;;;;;;;17.38;12.73;;;;;;;15.30;100.00;156366.13;4981505;28;20050;-85
2022/06/28 04:57:12;;;;;;;17.48;12.70;;;;;;;15.49;100.00;156412.47;5005357;28;20045;-86
2022/06/28 04:59:41;;;;;;;16.67;12.75;;;;;;;15.62;100.00;156445.94;4990312;28;20132;-84
2022/06/28 05:02:16;;;;;;;20.75;12.73;;;;;;;15.68;100.00;156460.09;4978404;28;20053;-86
2022/06/28 05:04:43;;;;;;;17.75;11.52;;;;;;;15.65;100.00;156453.66;4980864;28;20037;-86
2022/06/28 05:07:16;;;;;;;14.93;12.00;;;;;;;15.60;100.00;156440.78;4984331;28;20045;-84
2022/06/28 05:09:42;;;;;;;18.73;12.45;;;;;;;15.47;100.00;156408.59;4988335;28;20405;-84
2022/06/28 05:12:08;;;;;;;20.42;12.30;;;;;;;15.54;100.00;156425.34;4968217;28;20038;-85
2022/06/28 05:14:39;;;;;;;19.65;13.52;;;;;;;15.42;100.00;156394.44;4982199;28;20042;-84
2022/06/28 05:17:05;;;;;;;19.70;12.90;;;;;;;15.35;100.00;156379.03;4971427;28;20136;-85
2022/06/28 05:19:33;;;;;;;20.42;15.85;;;;;;;15.36;100.00;156380.28;5000296;28;20092;-85
2022/06/28 05:21:59;;;;;;;25.80;21.13;;;;;;;15.33;100.00;156372.56;4989711;28;20037;-85
2022/06/28 05:24:25;;;;;;;34.58;25.65;;;;;;;15.37;100.00;156384.16;4984615;28;20100;-85
2022/06/28 05:26:56;;;;;;;42.92;30.63;;;;;;;15.51;100.00;156417.63;4996311;28;20042;-84
2022/06/28 05:29:22;;;;;;;33.95;25.33;;;;;;;15.77;100.00;156483.31;5001862;28;20049;-84
2022/06/28 05:31:48;;;;;;;27.17;22.98;;;;;;;15.81;100.00;156492.31;4980918;28;20042;-84
2022/06/28 05:34:13;;;;;;;25.75;21.50;;;;;;;15.94;100.00;156525.78;4983315;28;20035;-85
2022/06/28 05:36:40;;;;;;;23.20;19.08;;;;;;;16.07;100.00;156557.97;4975172;28;20092;-83
2022/06/28 05:39:08;;;;;;;25.92;19.40;;;;;;;16.22;100.00;156596.56;4984762;28;20034;-84
2022/06/28 05:41:35;;;;;;;19.83;17.10;;;;;;;16.25;100.00;156604.28;4976859;28;20601;-83
2022/06/28 05:44:01;;;;;;;19.55;17.33;;;;;;;16.28;100.00;156610.75;4985336;28;20057;-85
2022/06/28 05:46:28;;;;;;;22.15;17.60;;;;;;;16.23;100.00;156599.13;4973104;28;20042;-84
2022/06/28 05:48:54;;;;;;;20.15;16.80;;;;;;;16.28;100.00;156612.00;5000880;28;20042;-84
2022/06/28 05:51:20;;;;;;;22.65;17.15;;;;;;;16.40;100.00;156640.34;4997992;28;20394;-83
2022/06/28 05:53:46;;;;;;;21.05;17.75;;;;;;;16.60;100.00;156690.56;4980378;28;20037;-85
2022/06/28 05:56:12;;;;;;;22.23;17.98;;;;;;;16.63;100.00;156699.59;4986582;28;20536;-85
2022/06/28 05:58:37;;;;;;;22.73;17.38;;;;;;;16.63;100.00;156698.25;4988015;28;20048;-84
2022/06/28 06:01:03;;;;;;;23.65;18.48;;;;;;;16.66;100.00;156707.28;4985262;28;20402;-81
2022/06/28 06:03:32;;;;;;;25.85;21.20;;;;;;;16.67;100.00;156708.56;4983880;28;20049;-82
2022/06/28 06:05:58;;;;;;;26.55;20.95;;;;;;;16.70;100.00;156716.28;4983771;28;20239;-83
2022/06/28 06:08:24;;;;;;;27.35;23.27;;;;;;;16.74;100.00;156726.59;4987890;28;20104;-82
2022/06/28 06:10:50;;;;;;;25.83;22.98;;;;;;;16.90;100.00;156767.88;4985540;28;20038;-83
2022/06/28 06:13:16;;;;;;;25.13;22.52;;;;;;;16.94;100.00;156776.88;4966971;28;20041;-82
2022/06/28 06:15:41;;;;;;;28.10;23.13;;;;;;;17.04;100.00;156802.63;4980295;28;20045;-82
2022/06/28 06:18:08;;;;;;;24.33;21.77;;;;;;;17.27;100.00;156859.31;4978735;28;20034;-80
2022/06/28 06:20:33;;;;;;;19.55;15.40;;;;;;;17.44;100.00;156903.13;4969874;28;20040;-85
2022/06/28 06:22:59;;;;;;;17.17;13.13;;;;;;;17.45;100.00;156904.41;4972690;28;20118;-82
2022/06/28 06:25:43;;;;;;;19.52;14.93;;;;;;;17.43;100.00;156900.53;5014604;28;20038;-81
2022/06/28 06:28:09;;;;;;;21.45;13.57;;;;;;;17.46;100.00;156908.28;4982489;28;20502;-82
2022/06/28 06:30:36;;;;;;;18.92;13.30;;;;;;;17.45;100.00;156904.41;4996461;28;20049;-83
2022/06/28 06:33:12;;;;;;;15.02;13.52;;;;;;;17.29;100.00;156864.44;4999215;28;20030;-83
2022/06/28 06:35:58;;;;;;;14.48;9.65;;;;;;;17.01;100.00;156794.91;4999969;28;20046;-82
2022/06/28 06:38:24;;;;;;;15.85;9.52;;;;;;;16.65;100.00;156704.72;4984256;28;20030;-85
2022/06/28 06:40:50;;;;;;;12.15;10.35;;;;;;;16.62;100.00;156697.00;4982201;28;20045;-84
2022/06/28 06:43:17;;;;;;;12.00;9.13;;;;;;;16.56;100.00;156681.56;4982910;28;20033;-82
2022/06/28 06:45:42;;;;;;;16.45;8.50;;;;;;;16.69;100.00;156715.03;4979341;28;20037;-82
2022/06/28 06:48:08;;;;;;;10.60;8.80;;;;;;;17.00;100.00;156791.06;4971518;28;20041;-84
2022/06/28 06:50:34;;;;;;;10.57;7.68;;;;;;;16.99;100.00;156789.78;4971805;28;20694;-82
2022/06/28 06:53:02;;;;;;;10.35;7.45;;;;;;;17.04;100.00;156802.63;4985168;28;20034;-82
2022/06/28 06:55:29;;;;;;;11.15;6.97;;;;;;;17.18;100.00;156836.09;4996254;28;20185;-84
2022/06/28 06:57:55;;;;;;;10.98;7.10;;;;;;;17.62;100.00;156948.19;4983529;28;20526;-82
2022/06/28 07:00:20;;;;;;;8.02;6.40;;;;;;;17.73;100.00;156974.00;4969625;28;20084;-82
2022/06/28 07:02:47;;;;;;;8.93;5.75;;;;;;;17.93;100.00;157024.25;4986082;28;20046;-81
2022/06/28 07:05:13;;;;;;;12.93;6.53;;;;;;;17.84;100.00;157002.34;4981991;28;20456;-84
2022/06/28 07:07:39;;;;;;;7.70;6.15;;;;;;;17.85;100.00;157004.94;4982897;28;20597;-78
2022/06/28 07:10:06;;;;;;;11.00;7.20;;;;;;;18.08;100.00;157062.91;4967150;28;20037;-79
2022/06/28 07:12:32;;;;;;;9.90;6.85;;;;;;;18.24;100.00;157104.16;4968068;28;20185;-80
2022/06/28 07:14:57;;;;;;;10.80;7.28;;;;;;;18.46;100.00;157159.59;4981331;28;20117;-83
2022/06/28 07:17:26;;;;;;;10.18;6.82;;;;;;;18.60;100.00;157194.38;4993257;28;20483;-83
2022/06/28 07:19:52;;;;;;;7.72;6.68;;;;;;;18.45;100.00;157155.72;4977328;28;20061;-81
2022/06/28 07:22:18;;;;;;;9.88;6.40;;;;;;;18.26;100.00;157109.31;4983866;28;20084;-81
2022/06/28 07:24:49;;;;;;;12.82;6.43;;;;;;;17.94;100.00;157028.13;4969644;28;20037;-81
2022/06/28 07:27:15;;;;;;;10.65;7.03;;;;;;;17.75;100.00;156979.13;4967625;28;20506;-81
2022/06/28 07:29:41;;;;;;;11.98;7.05;;;;;;;17.56;100.00;156931.47;4983809;28;20084;-79
2022/06/28 07:32:07;;;;;;;8.07;5.40;;;;;;;17.82;100.00;156997.13;4971875;28;20037;-83
2022/06/28 07:34:32;;;;;;;10.27;7.18;;;;;;;18.03;100.00;157050.06;4979071;28;20042;-82
2022/06/28 07:36:58;;;;;;;10.63;6.57;;;;;;;18.19;100.00;157090.00;4986808;28;20038;-80
2022/06/28 07:39:24;;;;;;;8.90;5.55;;;;;;;18.64;100.00;157204.69;4975852;28;20062;-77
2022/06/28 07:42:09;;;;;;;8.65;5.30;;;;;;;18.98;100.00;157289.84;5014003;28;20025;-79
2022/06/28 07:44:57;;;;;;;6.05;4.18;;;;;;;19.44;100.00;157405.91;4982512;28;20033;-79
2022/06/28 07:47:23;;;;;;;5.75;3.25;;;;;;;19.79;98.96;157493.66;4990738;28;20038;-77
2022/06/28 07:52:39;;;;;;;5.60;3.88;;;;;;;19.92;100.00;157524.63;4975362;28;20069;-78
2022/06/28 07:55:12;;;;;;;5.00;2.92;;;;;;;19.19;99.35;157341.41;4983976;28;20034;-77
2022/06/28 07:57:59;;;;;;;6.53;2.83;;;;;;;18.53;100.00;157176.34;4996330;28;20060;-77
2022/06/28 08:00:26;;;;;;;2.72;2.50;;;;;;;17.87;100.00;157011.38;4979097;28;20517;-77
2022/06/28 08:03:08;;;;;;;4.53;2.20;;;;;;;17.82;100.00;156998.47;4982256;28;20117;-77
2022/06/28 08:05:34;;;;;;;5.22;2.00;;;;;;;18.25;100.00;157105.44;5004004;28;20586;-77
2022/06/28 08:08:00;;;;;;;5.65;2.15;;;;;;;18.77;100.00;157236.94;4981126;28;20038;-78
2022/06/28 08:10:27;;;;;;;5.90;1.80;;;;;;;19.11;97.53;157322.09;4978642;28;20064;-77
2022/06/28 08:12:54;;;;;;;7.95;1.70;;;;;;;19.34;95.10;157380.09;4980838;28;20042;-77
2022/06/28 08:15:20;;;;;;;5.47;1.92;;;;;;;19.43;91.15;157402.03;4988317;28;20556;-78
2022/06/28 08:17:46;;;;;;;4.85;2.03;;;;;;;19.71;93.17;157471.69;4977238;28;20045;-78
2022/06/28 08:20:13;;;;;;;6.63;1.65;;;;;;;20.05;88.23;157558.16;4966981;28;20025;-77
2022/06/28 08:22:39;;;;;;;3.67;1.60;;;;;;;20.23;88.22;157604.63;4989380;28;20053;-76
2022/06/28 08:25:05;;;;;;;5.57;1.55;;;;;;;20.34;85.36;157630.41;4996225;28;20042;-78
2022/06/28 08:27:31;;;;;;;5.63;1.50;;;;;;;20.65;83.14;157709.19;4978911;28;20050;-78
2022/06/28 08:29:57;;;;;;;6.88;1.20;;;;;;;20.58;84.19;157691.06;4981690;28;20045;-77
2022/06/28 08:32:23;;;;;;;6.18;1.60;;;;;;;20.04;91.19;157555.56;4979528;28;20525;-77
2022/06/28 08:34:50;;;;;;;5.45;1.20;;;;;;;20.19;87.74;157594.31;4981220;28;20037;-79
2022/06/28 08:37:16;;;;;;;4.22;1.13;;;;;;;20.47;79.51;157662.66;4980002;28;20527;-76
2022/06/28 08:39:42;;;;;;;1.63;0.63;;;;;;;20.80;85.87;157746.63;4990047;28;20578;-77
2022/06/28 08:42:12;;;;;;;9.50;1.50;;;;;;;20.96;80.88;157787.94;4972377;28;20045;-78
2022/06/28 08:44:38;;;;;;;3.08;1.08;;;;;;;21.01;78.94;157799.53;4986232;28;20049;-76
2022/06/28 08:47:04;;;;;;;5.53;1.05;;;;;;;21.17;80.63;157839.53;4979163;28;20038;-78
2022/06/28 08:49:50;;;;;;;3.60;1.00;;;;;;;21.36;83.99;157888.59;4972211;28;20038;-79
2022/06/28 08:52:16;;;;;;;5.10;0.75;;;;;;;21.31;70.19;157874.41;4973201;28;20037;-78
2022/06/28 08:54:43;;;;;;;4.53;0.75;;;;;;;21.30;71.62;157871.81;4984403;28;20117;-78
2022/06/28 08:57:08;;;;;;;5.60;0.82;;;;;;;21.40;70.05;157897.66;4982572;28;20034;-78
2022/06/28 08:59:38;;;;;;;5.72;0.88;;;;;;;21.49;67.86;157920.94;4981623;28;20040;-77
2022/06/28 09:02:06;;;;;;;4.28;1.25;;;;;;;21.59;68.26;157945.47;4970619;28;20077;-77
2022/06/28 09:04:32;;;;;;;1.88;0.70;;;;;;;21.63;66.06;157955.78;4998698;28;20533;-77
2022/06/28 09:06:59;;;;;;;5.80;1.00;;;;;;;21.65;67.62;157959.66;4983763;28;20042;-78
2022/06/28 09:09:25;;;;;;;3.90;0.93;;;;;;;21.73;68.88;157981.59;4980364;28;20034;-77
2022/06/28 09:11:52;;;;;;;3.50;1.00;;;;;;;21.91;66.77;158025.53;4971814;28;20409;-78
2022/06/28 09:14:35;;;;;;;5.88;1.02;;;;;;;21.87;65.80;158015.16;4995278;28;20084;-78
2022/06/28 09:17:20;;;;;;;3.08;0.77;;;;;;;21.87;68.37;158015.16;4977218;28;20529;-78
2022/06/28 09:19:53;;;;;;;11.65;1.10;;;;;;;22.05;67.83;158061.66;4999893;28;20505;-77
2022/06/28 09:22:45;;;;;;;3.13;1.00;;;;;;;22.21;65.26;158100.41;4980307;28;20437;-77
2022/06/28 09:25:23;;;;;;;4.53;0.93;;;;;;;22.38;63.81;158144.41;4981333;28;20052;-78
2022/06/28 09:27:49;;;;;;;6.90;0.98;;;;;;;22.48;63.49;158170.22;4967544;28;20068;-78
2022/06/28 09:30:15;;;;;;;4.53;1.15;;;;;;;21.91;65.04;158025.53;4999536;28;20479;-79
2022/06/28 09:32:41;;;;;;;4.38;1.17;;;;;;;21.90;64.15;158022.94;4985621;28;20050;-77
2022/06/28 09:35:09;;;;;;;3.83;0.90;;;;;;;21.41;67.38;157900.22;4982885;28;20266;-77
2022/06/28 09:37:48;;;;;;;3.90;1.00;;;;;;;21.73;74.65;157980.31;4981923;28;20060;-78
2022/06/28 09:40:16;;;;;;;3.58;0.70;;;;;;;22.15;69.60;158086.19;4979482;28;20610;-78
2022/06/28 09:42:44;;;;;;;3.53;0.73;;;;;;;22.39;64.89;158145.69;4966438;28;20046;-77
2022/06/28 09:45:12;;;;;;;4.35;1.10;;;;;;;22.64;64.83;158210.28;4984529;28;20033;-77
2022/06/28 09:47:47;;;;;;;3.17;0.80;;;;;;;22.68;63.55;158220.59;4998155;28;20042;-78
2022/06/28 09:50:20;;;;;;;3.22;0.98;;;;;;;22.82;63.71;158255.47;4968906;28;20040;-79
2022/06/28 09:52:46;;;;;;;2.80;0.55;;;;;;;22.91;59.79;158277.44;4984189;28;20096;-78
2022/06/28 09:55:14;;;;;;;3.33;0.80;;;;;;;23.01;57.64;158303.28;4999925;28;20036;-77
2022/06/28 09:57:43;;;;;;;1.75;0.75;;;;;;;22.92;56.36;158281.34;4986493;28;20026;-77
2022/06/28 10:00:10;;;;;;;3.35;0.95;;;;;;;23.08;58.22;158321.41;4989127;28;20430;-77
2022/06/28 10:02:43;;;;;;;4.70;0.90;;;;;;;23.19;56.31;158347.25;4997153;28;20034;-76
2022/06/28 10:05:10;;;;;;;3.35;0.90;;;;;;;22.47;58.52;158167.66;4981050;28;20410;-77
2022/06/28 10:07:37;;;;;;;6.47;0.77;;;;;;;21.77;65.26;157990.63;4983403;28;20416;-77
2022/06/28 10:10:04;;;;;;;5.28;0.85;;;;;;;21.00;72.84;157796.94;4997879;28;20038;-77
2022/06/28 10:15:23;;;;;;;5.70;0.98;;;;;;;21.54;67.47;157933.81;5003065;28;20482;-78
2022/06/28 10:18:03;;;;;;;3.08;0.75;;;;;;;21.32;74.68;157876.97;4984682;28;20624;-76
2022/06/28 10:20:34;;;;;;;5.18;0.75;;;;;;;21.50;79.41;157922.22;4963491;28;20060;-78
2022/06/28 10:23:23;;;;;;;1.63;0.70;;;;;;;22.13;73.59;158081.03;4998473;28;20033;-78
2022/06/28 10:26:00;;;;;;;3.63;0.80;;;;;;;22.64;60.16;158210.28;4997116;28;20062;-76
2022/06/28 10:28:28;;;;;;;2.95;0.80;;;;;;;22.94;59.22;158286.50;4978488;28;20125;-79
2022/06/28 10:31:24;;;;;;;2.63;0.80;;;;;;;23.01;57.49;158303.28;5015006;28;20101;-78
2022/06/28 10:34:03;;;;;;;2.63;0.70;;;;;;;23.06;59.31;158314.97;4982291;28;20022;-78
2022/06/28 10:36:56;;;;;;;2.17;0.60;;;;;;;23.45;61.06;158414.47;4981561;28;20106;-78
2022/06/28 10:39:31;;;;;;;3.85;0.85;;;;;;;23.85;57.10;158514.06;4962668;28;20393;-77
2022/06/28 10:41:59;;;;;;;3.20;0.80;;;;;;;23.79;55.79;158498.50;4993943;28;20048;-78
2022/06/28 10:44:31;;;;;;;3.50;0.70;;;;;;;23.94;54.30;158537.31;4993914;28;20070;-76
2022/06/28 10:47:05;;;;;;;3.50;0.75;;;;;;;23.99;55.06;158550.22;4971500;28;20034;-78
2022/06/28 10:49:46;;;;;;;4.55;0.75;;;;;;;24.28;59.42;158622.66;4976779;28;20144;-78
2022/06/28 10:52:29;;;;;;;2.25;0.65;;;;;;;24.32;50.83;158631.66;4982541;28;20030;-77
2022/06/28 10:54:54;;;;;;;2.88;0.60;;;;;;;24.29;54.80;158626.50;4990546;28;20043;-78
2022/06/28 10:57:27;;;;;;;3.63;0.60;;;;;;;24.56;52.11;158692.50;4979897;28;20042;-77
2022/06/28 10:59:58;;;;;;;2.60;0.60;;;;;;;24.55;53.01;158689.94;4993134;28;20030;-78
2022/06/28 11:02:43;;;;;;;1.73;0.50;;;;;;;24.83;53.10;158762.34;4980263;28;20134;-76
2022/06/28 11:05:09;;;;;;;4.63;0.73;;;;;;;24.75;51.99;158740.34;4989952;28;20478;-76
2022/06/28 11:07:37;;;;;;;3.50;0.70;;;;;;;24.47;58.41;158671.78;4999963;28;20044;-77
2022/06/28 11:10:05;;;;;;;2.28;0.60;;;;;;;24.48;55.18;158674.34;4981651;28;20037;-77
2022/06/28 11:12:35;;;;;;;4.07;0.68;;;;;;;24.79;53.25;158752.00;4983225;28;20052;-77
2022/06/28 11:15:03;;;;;;;3.33;0.52;;;;;;;24.78;56.13;158749.38;4996789;28;20064;-77
2022/06/28 11:17:30;;;;;;;1.83;0.70;;;;;;;25.06;51.52;158819.25;4978328;28;20068;-76
2022/06/28 11:20:02;;;;;;;1.80;0.55;;;;;;;25.49;52.31;158926.69;4995615;28;20052;-78
2022/06/28 11:22:36;;;;;;;1.80;0.60;;;;;;;25.74;52.47;158990.06;4987557;28;20508;-79
2022/06/28 11:25:04;;;;;;;2.72;0.90;;;;;;;24.87;49.80;158772.66;4964299;28;20069;-77
2022/06/28 11:27:31;;;;;;;1.67;0.52;;;;;;;24.43;57.25;158661.44;4968925;28;20212;-77
2022/06/28 11:29:59;;;;;;;5.80;1.00;;;;;;;23.77;62.82;158494.63;5008119;28;20030;-76